Time;durP1;ratioP1;P1;durP2;ratioP2;P2;SDS_P1;SDS_P2;PMS_P1;PMS_P2;Temp;Humidity;BMP_temperature;BMP_pressure;BME280_temperature;BME280_humidity;BME280_pressure;Samples;Min_cycle;Max_cycle;Signal;HPM_P1;HPM_P2
2022/08/02 00:01:29;;;;;;;8.05;5.90;;;;;;;23.60;52.07;93576.25;5982835;23;20026;-94
2022/08/02 00:03:54;;;;;;;6.97;6.28;;;;;;;23.60;52.12;93581.78;5985206;23;20023;-94
2022/08/02 00:06:20;;;;;;;6.65;5.38;;;;;;;23.61;52.21;93583.25;6003483;23;20029;-93
2022/08/02 00:08:45;;;;;;;6.20;5.60;;;;;;;23.61;52.20;93577.00;6006452;23;20094;-93
2022/08/02 00:11:11;;;;;;;5.97;5.35;;;;;;;23.60;52.22;93576.25;6009232;23;20019;-94
2022/08/02 00:13:38;;;;;;;5.75;5.10;;;;;;;23.60;52.39;93570.03;5984765;23;20026;-93
2022/08/02 00:16:04;;;;;;;6.25;5.53;;;;;;;23.58;52.15;93574.06;6009898;23;20019;-93
2022/08/02 00:18:29;;;;;;;6.53;5.20;;;;;;;23.60;52.45;93572.78;5986981;23;20031;-93
2022/08/02 00:20:55;;;;;;;6.68;5.10;;;;;;;23.59;52.51;93572.06;6001647;23;20371;-93
2022/08/02 00:23:20;;;;;;;6.72;5.15;;;;;;;23.59;52.26;93558.25;6061365;23;20023;-92
2022/08/02 00:25:46;;;;;;;6.85;5.20;;;;;;;23.59;52.19;93555.50;6058815;23;20446;-94
2022/08/02 00:28:11;;;;;;;6.45;5.85;;;;;;;23.57;52.27;93560.81;6049271;23;20022;-94
2022/08/02 00:30:37;;;;;;;6.35;5.47;;;;;;;23.57;52.34;93558.78;6010723;23;20026;-93
2022/08/02 00:33:04;;;;;;;4.78;4.32;;;;;;;23.57;52.20;93561.56;6038015;23;20026;-93
2022/08/02 00:35:29;;;;;;;6.18;5.25;;;;;;;23.57;52.21;93567.06;6067741;23;20018;-93
2022/08/02 00:37:54;;;;;;;6.10;4.97;;;;;;;23.55;52.50;93558.59;6064455;23;20045;-93
2022/08/02 00:40:21;;;;;;;5.43;4.55;;;;;;;23.56;52.14;93568.34;6035505;23;20502;-94
2022/08/02 00:42:46;;;;;;;5.47;4.82;;;;;;;23.58;52.37;93563.03;6062026;23;20042;-92
2022/08/02 00:45:12;;;;;;;5.00;4.40;;;;;;;23.56;52.48;93573.88;6002001;23;20086;-94
2022/08/02 00:47:37;;;;;;;4.90;4.45;;;;;;;23.56;52.45;93578.66;6012213;23;20027;-94
2022/08/02 00:50:03;;;;;;;5.80;5.00;;;;;;;23.55;52.40;93572.38;6011447;23;20085;-93
2022/08/02 00:52:28;;;;;;;5.63;4.97;;;;;;;23.55;52.34;93561.34;6033306;23;20098;-92
2022/08/02 00:54:54;;;;;;;5.43;4.80;;;;;;;23.53;52.28;93574.94;6017212;23;20015;-94
2022/08/02 00:57:19;;;;;;;5.35;4.85;;;;;;;23.55;52.30;93572.38;6064180;23;20025;-94
2022/08/02 00:59:45;;;;;;;5.30;4.60;;;;;;;23.54;52.40;93581.19;6064354;23;20042;-94
2022/08/02 01:02:10;;;;;;;4.90;4.40;;;;;;;23.55;52.01;93574.41;6023930;23;20022;-93
2022/08/02 01:04:36;;;;;;;5.13;4.60;;;;;;;23.54;52.18;93586.72;6012753;23;20030;-93
2022/08/02 01:07:05;;;;;;;5.72;4.75;;;;;;;23.55;52.30;93599.25;6062678;23;20022;-93
2022/08/02 01:09:30;;;;;;;5.70;3.97;;;;;;;23.55;52.31;93593.72;6040597;23;20525;-93
2022/08/02 01:11:56;;;;;;;4.18;3.60;;;;;;;23.54;52.30;93595.75;6086841;23;20026;-92
2022/08/02 01:14:23;;;;;;;5.28;4.38;;;;;;;23.55;52.33;93599.25;6087158;23;20034;-93
2022/08/02 01:17:09;;;;;;;5.03;3.95;;;;;;;23.53;52.29;93596.28;6087354;23;20014;-93
2022/08/02 01:19:48;;;;;;;4.88;4.30;;;;;;;23.56;52.46;93597.97;6042760;23;20056;-94
2022/08/02 01:22:20;;;;;;;5.38;4.35;;;;;;;23.55;52.47;93590.97;6084113;23;20029;-93
2022/08/02 01:25:05;;;;;;;4.60;4.13;;;;;;;23.53;52.36;93596.28;6088750;23;20030;-94
2022/08/02 01:28:02;;;;;;;4.53;4.00;;;;;;;23.51;52.30;93605.06;6083468;23;20075;-93
2022/08/02 01:30:28;;;;;;;5.40;3.47;;;;;;;23.54;52.22;93595.00;5993655;23;20038;-94
2022/08/02 01:32:54;;;;;;;4.53;4.07;;;;;;;23.53;52.37;93591.50;5990914;23;20019;-93
2022/08/02 01:35:23;;;;;;;4.88;4.00;;;;;;;23.54;52.43;93597.75;6042686;23;20031;-93
2022/08/02 01:37:53;;;;;;;4.90;4.05;;;;;;;23.51;52.40;93593.28;6038374;23;20544;-93
2022/08/02 01:40:28;;;;;;;5.00;4.03;;;;;;;23.50;52.46;93598.06;6039969;23;20049;-94
2022/08/02 01:42:54;;;;;;;4.43;3.50;;;;;;;23.51;52.40;93599.56;6039475;23;20496;-94
2022/08/02 01:45:20;;;;;;;4.28;3.53;;;;;;;23.51;52.40;93602.31;6035322;23;20015;-95
2022/08/02 01:47:46;;;;;;;4.30;3.58;;;;;;;23.50;52.34;93600.81;6012973;23;20407;-93
2022/08/02 01:50:13;;;;;;;3.60;3.30;;;;;;;23.51;52.44;93616.09;6006100;23;20018;-93
2022/08/02 01:52:42;;;;;;;4.47;3.60;;;;;;;23.51;52.40;93620.88;6014821;23;20023;-93
2022/08/02 01:55:20;;;;;;;4.00;3.60;;;;;;;23.49;52.52;93628.97;6066396;23;20030;-93
2022/08/02 01:57:49;;;;;;;3.33;3.03;;;;;;;23.50;52.14;93633.19;6039091;23;20018;-94
2022/08/02 02:00:15;;;;;;;4.00;3.70;;;;;;;23.53;52.33;93623.88;6041593;23;20022;-94
2022/08/02 02:02:43;;;;;;;4.20;3.42;;;;;;;23.51;52.26;93627.16;6060269;23;20018;-93
2022/08/02 02:05:13;;;;;;;4.25;3.83;;;;;;;23.50;52.47;93622.16;6027823;23;20451;-93
2022/08/02 02:07:39;;;;;;;;;;;;;;;23.50;52.38;93631.19;6014342;23;20030;-93
2022/08/02 02:10:05;;;;;;;3.53;3.20;;;;;;;23.50;52.46;93628.41;6030628;23;20439;-93
2022/08/02 02:12:32;;;;;;;3.92;3.47;;;;;;;23.49;52.45;93626.94;6036556;23;20229;-92
2022/08/02 02:15:00;;;;;;;3.33;3.03;;;;;;;23.49;52.57;93628.97;6010344;23;20103;-94
2022/08/02 02:17:28;;;;;;;3.78;3.38;;;;;;;23.48;52.53;93614.41;6013963;23;20019;-94
2022/08/02 02:19:54;;;;;;;7.93;3.50;;;;;;;23.49;52.51;93621.41;6024973;23;20026;-92
2022/08/02 02:22:20;;;;;;;3.78;3.25;;;;;;;23.50;52.51;93619.41;6051933;23;20046;-94
2022/08/02 02:24:48;;;;;;;3.63;3.15;;;;;;;23.49;52.48;93623.44;6017382;23;20516;-94
2022/08/02 02:27:13;;;;;;;4.28;3.75;;;;;;;23.48;52.47;93619.94;6066256;23;20023;-94
2022/08/02 02:29:46;;;;;;;3.50;3.20;;;;;;;23.48;52.52;93619.94;6033900;23;20105;-93
2022/08/02 02:32:20;;;;;;;3.88;3.40;;;;;;;23.48;52.46;93611.66;6034516;23;20015;-93
2022/08/02 02:34:45;;;;;;;3.50;3.20;;;;;;;23.48;52.45;93617.19;6046932;23;20014;-94
2022/08/02 02:37:20;;;;;;;3.80;3.15;;;;;;;23.48;52.54;93608.91;6059690;23;20074;-93
2022/08/02 02:39:47;;;;;;;3.65;2.80;;;;;;;23.47;52.41;93609.44;6011857;23;20103;-93
2022/08/02 02:42:15;;;;;;;2.90;2.60;;;;;;;23.47;52.61;93607.41;5987719;23;20340;-92
2022/08/02 02:44:44;;;;;;;2.72;2.50;;;;;;;23.46;52.52;93605.19;5986732;23;20021;-94
2022/08/02 02:47:09;;;;;;;3.05;2.60;;;;;;;23.47;52.61;93609.44;5988826;23;20075;-93
2022/08/02 02:49:36;;;;;;;3.65;2.97;;;;;;;23.46;52.53;93605.19;6009312;23;20536;-95
2022/08/02 02:52:03;;;;;;;3.00;2.70;;;;;;;23.45;52.71;93604.47;5988240;23;20102;-93
2022/08/02 02:54:29;;;;;;;3.25;2.60;;;;;;;23.46;52.74;93599.69;5989329;23;20027;-95
2022/08/02 02:56:54;;;;;;;3.45;2.75;;;;;;;23.46;52.95;93602.44;6011383;23;20043;-94
2022/08/02 02:59:20;;;;;;;3.45;2.90;;;;;;;23.45;52.71;93598.19;5990132;23;20023;-96
2022/08/02 03:01:45;;;;;;;3.05;2.55;;;;;;;23.45;52.75;93598.94;5988513;23;20026;-93
2022/08/02 03:04:11;;;;;;;2.58;2.28;;;;;;;23.44;52.68;93596.72;6010594;23;20026;-94
2022/08/02 03:06:37;;;;;;;2.83;2.30;;;;;;;23.44;52.68;93591.19;5988647;23;20023;-96
2022/08/02 03:09:03;;;;;;;3.70;3.00;;;;;;;23.42;52.78;93591.75;6038078;23;20050;-93
2022/08/02 03:11:29;;;;;;;3.03;2.42;;;;;;;23.44;52.62;93585.69;6043595;23;20023;-95
2022/08/02 03:13:57;;;;;;;2.85;2.40;;;;;;;23.43;52.86;93587.69;6041929;23;20560;-94
2022/08/02 03:16:23;;;;;;;2.72;2.53;;;;;;;23.44;52.86;93585.69;6037743;23;20513;-94
2022/08/02 03:18:49;;;;;;;2.40;2.20;;;;;;;23.43;52.72;93600.75;6064032;23;20328;-93
2022/08/02 03:21:14;;;;;;;2.97;2.40;;;;;;;23.43;52.72;93609.03;6064232;23;20053;-93
2022/08/02 03:23:41;;;;;;;2.50;2.17;;;;;;;23.42;52.91;93604.78;6091878;23;20022;-94
2022/08/02 03:26:06;;;;;;;2.65;2.35;;;;;;;23.42;52.86;93611.06;6037981;23;20472;-94
2022/08/02 03:28:32;;;;;;;2.47;2.17;;;;;;;23.42;52.86;93610.31;6044226;23;20042;-94
2022/08/02 03:30:57;;;;;;;2.33;2.13;;;;;;;23.43;52.72;93617.31;6040755;23;20019;-94
2022/08/02 03:33:23;;;;;;;2.63;2.40;;;;;;;23.43;52.67;93620.81;6061987;23;20039;-94
2022/08/02 03:35:49;;;;;;;2.50;2.30;;;;;;;23.42;52.89;93621.34;6042915;23;20077;-94
2022/08/02 03:38:16;;;;;;;2.83;1.98;;;;;;;23.41;52.87;93608.84;6042548;23;20097;-94
2022/08/02 03:40:42;;;;;;;2.42;2.17;;;;;;;23.42;52.87;93602.03;6043443;23;20014;-94
2022/08/02 03:43:07;;;;;;;2.13;1.92;;;;;;;23.42;52.74;93604.78;6042787;23;20470;-94
2022/08/02 03:45:33;;;;;;;2.72;1.90;;;;;;;23.42;52.75;93608.28;6041541;23;20093;-95
2022/08/02 03:47:59;;;;;;;2.75;2.22;;;;;;;23.40;52.81;93607.34;6065370;23;20014;-94
2022/08/02 03:50:25;;;;;;;2.83;2.33;;;;;;;23.42;52.80;93602.03;6066392;23;20343;-93
2022/08/02 03:52:50;;;;;;;2.50;2.20;;;;;;;23.41;52.87;93603.31;6067187;23;20601;-94
2022/08/02 03:55:16;;;;;;;5.88;2.55;;;;;;;23.41;52.69;93603.31;6074808;23;20022;-93
2022/08/02 03:57:41;;;;;;;2.22;1.80;;;;;;;23.41;52.83;93606.06;6014183;23;20065;-94
2022/08/02 04:00:09;;;;;;;2.45;2.20;;;;;;;23.39;52.69;93608.63;6065491;23;20026;-95
2022/08/02 04:02:35;;;;;;;2.13;1.92;;;;;;;23.42;52.77;93610.31;6042807;23;20018;-95
2022/08/02 04:05:01;;;;;;;2.10;1.80;;;;;;;23.42;52.86;93619.31;6062427;23;20014;-94
2022/08/02 04:07:26;;;;;;;3.88;2.05;;;;;;;23.43;52.79;93615.28;6038670;23;20126;-94
2022/08/02 04:09:52;;;;;;;4.88;2.05;;;;;;;23.47;52.73;93618.47;6014490;23;20030;-95
2022/08/02 04:12:17;;;;;;;6.90;6.13;;;;;;;23.44;52.49;93614.00;6035796;23;20023;-94
2022/08/02 04:14:48;;;;;;;10.23;6.15;;;;;;;23.40;52.77;93618.38;6013767;23;20102;-95
2022/08/02 04:17:15;;;;;;;10.77;6.82;;;;;;;23.43;52.72;93620.06;6044344;23;20030;-96
2022/08/02 04:19:52;;;;;;;24.38;16.50;;;;;;;23.46;52.54;93621.75;6080476;23;20022;-95
2022/08/02 04:22:24;;;;;;;15.07;12.80;;;;;;;23.50;52.61;93625.66;6054697;23;20018;-96
2022/08/02 04:24:54;;;;;;;11.20;9.40;;;;;;;23.55;52.41;93635.84;6043499;23;20018;-96
2022/08/02 04:27:20;;;;;;;2.42;2.20;;;;;;;23.48;53.96;93633.75;6099242;23;20015;-95
2022/08/02 04:29:45;;;;;;;3.83;1.90;;;;;;;23.38;54.69;93634.75;6020999;23;20030;-93
2022/08/02 04:32:19;;;;;;;3.03;1.40;;;;;;;23.18;55.64;93630.69;6067905;23;20026;-95
2022/08/02 04:35:06;;;;;;;2.55;1.52;;;;;;;22.99;56.55;93641.16;6010667;23;20020;-94
2022/08/02 04:37:32;;;;;;;3.13;2.03;;;;;;;22.83;57.11;93648.53;6025350;23;20048;-92
2022/08/02 04:39:59;;;;;;;12.05;6.78;;;;;;;22.74;57.55;93652.44;6082011;23;20025;-92
2022/08/02 04:42:25;;;;;;;4.55;1.92;;;;;;;22.71;57.96;93655.53;6091710;23;20013;-93
2022/08/02 04:44:53;;;;;;;3.20;2.38;;;;;;;22.52;58.38;93659.16;6057853;23;20073;-94
2022/08/02 04:47:20;;;;;;;2.30;1.70;;;;;;;22.57;58.78;93663.06;6106960;23;20060;-90
2022/08/02 04:50:11;;;;;;;4.53;1.90;;;;;;;22.62;58.27;93669.75;6085196;23;20022;-94
2022/08/02 04:52:39;;;;;;;1.75;1.63;;;;;;;22.63;58.53;93665.72;6060051;23;20108;-92
2022/08/02 04:55:05;;;;;;;4.97;2.20;;;;;;;22.47;58.72;93671.06;6073901;23;20037;-93
2022/08/02 05:00:16;;;;;;;2.05;1.75;;;;;;;22.39;58.98;93672.22;6079618;23;20037;-92
2022/08/02 05:02:42;;;;;;;3.17;2.20;;;;;;;22.25;58.91;93674.25;6044757;23;20089;-93
2022/08/02 05:05:33;;;;;;;7.63;2.38;;;;;;;22.23;59.38;93677.53;6048045;23;20379;-94
2022/08/02 05:07:59;;;;;;;7.22;2.42;;;;;;;22.15;59.46;93676.66;5960764;23;20166;-93
2022/08/02 05:10:25;;;;;;;13.00;2.58;;;;;;;22.28;59.81;93675.94;5957422;23;20462;-92
2022/08/02 05:12:51;;;;;;;8.85;5.07;;;;;;;22.18;60.23;93680.38;5942683;23;20377;-93
2022/08/02 05:15:17;;;;;;;13.48;4.60;;;;;;;22.29;60.24;93685.69;5929775;23;20031;-91
2022/08/02 05:17:46;;;;;;;8.02;4.68;;;;;;;22.28;60.26;93681.44;5947999;23;20020;-91
2022/08/02 05:20:15;;;;;;;13.63;8.02;;;;;;;22.35;60.31;93691.06;5958053;23;20026;-91
2022/08/02 05:22:41;;;;;;;16.40;6.78;;;;;;;22.41;59.53;93692.44;5948924;23;20075;-90
2022/08/02 05:25:10;;;;;;;10.27;6.50;;;;;;;22.38;59.62;93699.00;5956372;23;20145;-92
2022/08/02 05:27:35;;;;;;;17.90;7.65;;;;;;;22.37;59.29;93702.28;5960870;23;20039;-93
2022/08/02 05:30:01;;;;;;;10.73;6.20;;;;;;;22.38;58.96;93704.53;5980834;23;20027;-92
2022/08/02 05:32:28;;;;;;;15.55;6.65;;;;;;;22.49;58.84;93706.34;5955457;23;20112;-92
2022/08/02 05:34:53;;;;;;;10.30;6.03;;;;;;;22.49;58.54;93709.84;5955537;23;20042;-93
2022/08/02 05:37:19;;;;;;;31.27;15.13;;;;;;;22.51;58.67;93707.28;5927007;24;20024;-93
2022/08/02 05:39:44;;;;;;;34.30;15.43;;;;;;;22.49;58.80;93712.59;5918663;24;20353;-92
2022/08/02 05:42:10;;;;;;;38.25;20.60;;;;;;;22.62;58.63;93716.59;5916809;24;20025;-92
2022/08/02 05:44:35;;;;;;;53.90;22.58;;;;;;;22.61;58.50;93715.84;5970943;23;20080;-92
2022/08/02 05:47:01;;;;;;;60.97;18.52;;;;;;;22.62;58.82;93719.34;6041006;23;20033;-91
2022/08/02 05:49:26;;;;;;;49.10;18.27;;;;;;;22.55;59.37;93724.22;6067595;23;20022;-91
2022/08/02 05:52:03;;;;;;;64.90;16.85;;;;;;;22.52;59.37;93727.28;6037134;23;20079;-92
2022/08/02 05:54:36;;;;;;;71.07;16.33;;;;;;;22.46;59.62;93718.41;6052357;23;20028;-92
2022/08/02 05:57:10;;;;;;;54.13;12.57;;;;;;;22.40;59.58;93723.28;6043723;23;20018;-91
2022/08/02 06:00:14;;;;;;;66.82;18.42;;;;;;;22.47;59.08;93720.63;6040710;23;20038;-91
2022/08/02 06:02:42;;;;;;;40.28;11.93;;;;;;;22.49;59.55;93720.09;5977395;23;20121;-91
2022/08/02 06:05:07;;;;;;;552.05;67.00;;;;;;;22.56;59.59;93725.72;5967059;23;20047;-92
2022/08/02 06:07:34;;;;;;;180.38;30.60;;;;;;;22.48;59.72;93721.38;5981725;23;20012;-94
2022/08/02 06:09:59;;;;;;;60.55;14.50;;;;;;;22.45;59.79;93714.91;5981710;23;20088;-91
2022/08/02 06:12:45;;;;;;;39.05;10.20;;;;;;;22.52;59.54;93724.53;5973610;23;20027;-92
2022/08/02 06:15:12;;;;;;;230.98;168.52;;;;;;;22.65;59.46;93724.53;6040470;23;20022;-93
2022/08/02 06:17:52;;;;;;;41.28;12.32;;;;;;;22.60;59.87;93733.66;6053305;23;20437;-92
2022/08/02 06:20:34;;;;;;;48.67;13.70;;;;;;;22.68;59.46;93734.50;6071394;23;20038;-94
2022/08/02 06:23:05;;;;;;;34.25;11.13;;;;;;;22.67;59.48;93727.50;6017369;23;20886;-92
2022/08/02 06:25:56;;;;;;;23.95;9.45;;;;;;;22.70;59.45;93731.22;6075380;23;20070;-91
2022/08/02 06:28:56;;;;;;;;;;;;;;;;;;;;;
2022/08/02 06:35:24;;;;;;;35.05;12.35;;;;;;;22.61;59.36;93743.41;6039914;23;20023;-93
2022/08/02 06:50:52;;;;;;;12.70;7.75;;;;;;;22.48;60.50;93721.38;6086726;23;20030;-93
2022/08/02 06:57:47;;;;;;;21.58;7.80;;;;;;;22.47;60.29;93714.38;6071083;23;20033;-94
2022/08/02 07:01:27;;;;;;;21.30;9.02;;;;;;;22.54;60.01;93714.47;6044491;23;20081;-92
2022/08/02 07:03:34;;;;;;;16.55;9.27;;;;;;;22.48;59.77;93713.84;6100739;23;20018;-91
2022/08/02 07:06:41;;;;;;;16.15;8.68;;;;;;;22.51;59.52;93712.06;6052605;23;20092;-93
2022/08/02 07:19:40;;;;;;;24.30;11.73;;;;;;;22.52;59.01;93705.25;5881505;24;20017;-93
2022/08/02 07:22:39;;;;;;;13.20;8.77;;;;;;;22.54;58.78;93703.44;5899101;24;20424;-93
2022/08/02 07:25:05;;;;;;;18.88;8.35;;;;;;;22.49;58.69;93698.81;5936209;24;20502;-91
2022/08/02 07:27:31;;;;;;;19.90;8.00;;;;;;;22.47;58.47;93693.09;5873482;24;20021;-94
2022/08/02 07:29:56;;;;;;;16.95;8.40;;;;;;;22.47;58.28;93704.09;5871090;24;20367;-91
2022/08/02 07:35:14;;;;;;;35.97;13.93;;;;;;;22.64;58.33;93703.78;6124498;23;20026;-92
2022/08/02 07:37:55;;;;;;;40.10;17.65;;;;;;;22.68;58.31;93708.97;6116244;23;20081;-94
2022/08/02 07:41:59;;;;;;;31.25;14.52;;;;;;;22.71;58.40;93699.63;6086204;23;20014;-94
2022/08/02 07:45:02;;;;;;;;;;;;;;;;;;;;;
2022/08/02 07:48:25;;;;;;;26.90;11.55;;;;;;;22.73;58.06;93702.59;5868915;24;20093;-93
2022/08/02 07:51:43;;;;;;;21.40;9.90;;;;;;;22.71;58.18;93697.63;5773490;24;20039;-93
2022/08/02 08:11:08;;;;;;;16.88;8.15;;;;;;;22.83;58.17;93709.19;6112736;23;20029;-92
2022/08/02 08:16:01;;;;;;;19.92;8.82;;;;;;;22.83;58.25;93707.16;6135040;23;20022;-91
2022/08/02 08:18:39;;;;;;;;;;;;;;;;;;;;;
2022/08/02 08:27:24;;;;;;;18.27;8.30;;;;;;;22.79;58.38;93709.50;6036689;23;20911;31
2022/08/02 08:29:53;;;;;;;20.73;9.88;;;;;;;22.85;58.02;93718.41;5957125;23;20579;-93
2022/08/02 08:33:01;;;;;;;25.77;9.70;;;;;;;22.83;58.12;93714.69;5924335;24;20508;-93
2022/08/02 08:35:27;;;;;;;43.22;10.20;;;;;;;22.84;58.20;93718.94;5956046;23;20023;-91
2022/08/02 08:38:11;;;;;;;28.27;14.25;;;;;;;22.85;58.47;93717.66;6071494;23;20038;-93
2022/08/02 08:40:43;;;;;;;29.83;15.00;;;;;;;22.90;58.03;93725.06;6015641;23;20114;-92
2022/08/02 08:43:12;;;;;;;39.05;17.83;;;;;;;22.92;57.95;93725.28;6021166;23;20075;-91
2022/08/02 08:45:53;;;;;;;37.70;16.83;;;;;;;22.92;58.26;93714.25;6049660;23;20138;-92
2022/08/02 08:48:26;;;;;;;33.67;14.43;;;;;;;22.85;58.37;93721.16;6037196;23;20098;-92
2022/08/02 08:51:09;;;;;;;38.70;14.63;;;;;;;22.83;58.54;93720.19;6033111;23;20038;-91
2022/08/02 08:53:41;;;;;;;29.95;12.55;;;;;;;22.81;58.49;93725.50;6018822;23;20028;-93
2022/08/02 08:56:08;;;;;;;52.53;14.43;;;;;;;22.86;58.49;93721.91;6058233;23;20040;-90
2022/08/02 08:58:34;;;;;;;47.00;15.35;;;;;;;22.86;58.56;93719.88;6093233;23;20022;-89
2022/08/02 09:01:06;;;;;;;69.50;25.40;;;;;;;22.85;58.38;93731.44;6082278;23;20006;-92
2022/08/02 09:03:33;;;;;;;41.22;16.52;;;;;;;22.89;58.36;93731.88;6076620;23;20018;-90
2022/08/02 09:05:59;;;;;;;30.67;12.38;;;;;;;22.80;58.57;93735.03;6113429;23;20081;-91
2022/08/02 09:08:32;;;;;;;42.33;13.60;;;;;;;22.86;58.64;93728.16;6084973;23;20050;-90
2022/08/02 09:25:16;;;;;;;20.13;11.97;;;;;;;22.86;58.76;93747.44;6135326;23;20026;-93
2022/08/02 09:27:52;;;;;;;101.50;52.75;;;;;;;22.84;58.91;93747.25;5953206;23;20032;-92
2022/08/02 09:48:58;;;;;;;28.60;12.65;;;;;;;22.93;58.41;93751.59;6173880;23;20056;-94
2022/08/02 09:51:23;;;;;;;32.58;17.70;;;;;;;22.94;58.47;93749.56;6137761;23;20037;-90
2022/08/02 09:54:35;;;;;;;28.02;15.65;;;;;;;22.88;58.42;93744.91;6119911;23;20033;-94
2022/08/02 09:57:00;;;;;;;27.70;15.48;;;;;;;22.91;58.27;93745.88;6040159;23;20104;-93
2022/08/02 09:59:27;;;;;;;29.08;14.15;;;;;;;22.93;58.81;93748.09;6080955;23;20239;-92
2022/08/02 10:02:04;;;;;;;18.27;11.73;;;;;;;22.95;58.56;93746.25;6081926;23;20017;-93
2022/08/02 10:04:30;;;;;;;18.55;11.38;;;;;;;22.97;58.41;93745.72;6086037;23;20034;-91
2022/08/02 10:07:09;;;;;;;17.10;10.02;;;;;;;23.01;58.34;93740.63;6054908;23;20067;-93
2022/08/02 10:09:39;;;;;;;15.68;8.77;;;;;;;23.00;58.14;93747.41;6096926;23;20021;-93
2022/08/02 10:12:05;;;;;;;1167.30;954.10;;;;;;;23.04;58.14;93745.09;6061683;23;20082;-93
2022/08/02 10:14:40;;;;;;;670.83;587.10;;;;;;;23.03;58.24;93736.06;6028689;23;20038;-94
2022/08/02 10:17:08;;;;;;;22.58;17.85;;;;;;;23.08;57.96;93734.47;6017236;23;20050;-92
2022/08/02 10:19:38;;;;;;;559.72;484.50;;;;;;;23.09;57.90;93736.69;6035300;23;20023;-94
2022/08/02 10:22:05;;;;;;;36.67;31.05;;;;;;;23.11;57.90;93736.91;5983920;23;20353;-93
2022/08/02 10:24:31;;;;;;;453.98;407.90;;;;;;;23.10;57.82;93737.44;6010051;23;20035;-93
2022/08/02 10:26:58;;;;;;;75.55;67.72;;;;;;;23.14;57.78;93735.09;6010949;23;20094;-92
2022/08/02 10:29:33;;;;;;;590.50;526.33;;;;;;;23.11;58.00;93733.41;6011650;23;20082;-92
2022/08/02 10:32:05;;;;;;;52.15;41.85;;;;;;;23.12;57.95;93734.91;6010978;23;20075;-92
2022/08/02 10:34:35;;;;;;;35.90;26.85;;;;;;;23.13;57.93;93731.59;6035404;23;20027;-93
2022/08/02 10:37:03;;;;;;;17.70;14.27;;;;;;;23.18;57.95;93721.72;6018681;23;20081;-94
2022/08/02 10:39:37;;;;;;;16.10;13.18;;;;;;;23.19;57.59;93721.16;6015824;23;20411;-94
2022/08/02 10:42:05;;;;;;;18.70;13.75;;;;;;;23.23;57.63;93721.59;6020790;23;20066;-92
2022/08/02 10:44:33;;;;;;;18.63;13.82;;;;;;;23.25;57.43;93721.81;6076251;23;20014;-93
2022/08/02 10:47:20;;;;;;;10.30;8.20;;;;;;;23.17;57.45;93728.50;6106510;23;20040;-91
2022/08/02 10:50:02;;;;;;;68.60;43.78;;;;;;;23.21;57.99;93726.16;6125836;23;20033;-92
2022/08/02 10:52:30;;;;;;;15.15;12.90;;;;;;;23.29;57.02;93718.72;6109815;23;20024;-91
2022/08/02 10:54:57;;;;;;;17.02;10.48;;;;;;;23.25;56.62;93718.31;6113419;23;20009;-91
2022/08/02 10:57:26;;;;;;;16.17;11.60;;;;;;;23.24;57.02;93714.81;6150297;23;20079;-90
2022/08/02 10:59:57;;;;;;;18.35;10.98;;;;;;;23.29;56.69;93715.22;6117877;23;20029;-90
2022/08/02 11:02:37;;;;;;;19.65;11.68;;;;;;;23.27;56.54;93715.00;6125021;23;20023;-91
2022/08/02 11:05:05;;;;;;;13.55;8.65;;;;;;;23.25;56.47;93710.75;6110910;23;20076;-91
2022/08/02 11:07:35;;;;;;;15.18;9.73;;;;;;;23.24;56.51;93711.28;6108305;23;20029;-91
2022/08/02 11:10:23;;;;;;;14.65;9.93;;;;;;;23.27;55.80;93721.25;6049642;23;20517;-91
2022/08/02 11:12:59;;;;;;;25.23;10.60;;;;;;;23.33;55.69;93718.38;6078475;23;20025;-91
2022/08/02 11:15:28;;;;;;;17.75;11.63;;;;;;;23.31;55.88;93707.16;6089986;23;20057;-92
2022/08/02 11:17:55;;;;;;;28.50;15.32;;;;;;;23.31;55.81;93699.63;6030741;23;20101;-90
2022/08/02 11:20:22;;;;;;;15.13;9.48;;;;;;;23.32;55.86;93709.38;6040485;23;20026;-92
2022/08/02 11:22:48;;;;;;;14.55;8.52;;;;;;;23.30;55.70;93709.16;5998742;23;20019;-92
2022/08/02 11:25:22;;;;;;;15.00;7.90;;;;;;;23.27;55.84;93704.72;6043161;23;20063;-93
2022/08/02 11:28:08;;;;;;;27.75;9.65;;;;;;;23.21;55.98;93704.84;6071092;23;20181;-93
2022/08/02 11:30:35;;;;;;;59.90;15.45;;;;;;;23.30;55.86;93695.38;6046696;23;20473;-91
2022/08/02 11:33:00;;;;;;;41.42;12.98;;;;;;;23.24;56.55;93697.50;6045088;23;20019;-93
2022/08/02 11:35:36;;;;;;;56.42;23.10;;;;;;;23.17;56.48;93701.66;6021533;23;20455;-93
2022/08/02 11:38:16;;;;;;;38.03;15.43;;;;;;;23.16;56.66;93696.69;6023031;23;20018;-91
2022/08/02 11:40:42;;;;;;;42.83;18.60;;;;;;;23.18;56.57;93694.88;6048833;23;20082;-92
2022/08/02 11:43:21;;;;;;;50.85;23.58;;;;;;;23.22;56.79;93697.31;6021875;23;20021;-93
2022/08/02 11:45:49;;;;;;;77.68;42.45;;;;;;;23.25;57.66;93696.22;6018505;23;20019;-92
2022/08/02 11:48:34;;;;;;;64.45;41.15;;;;;;;23.16;57.72;93696.69;6022430;23;20042;-92
2022/08/02 11:51:13;;;;;;;59.10;36.05;;;;;;;23.17;57.71;93693.38;6021828;23;20465;-93
2022/08/02 11:53:48;;;;;;;59.15;35.20;;;;;;;23.21;57.56;93701.34;6058181;23;20021;-93
2022/08/02 11:56:16;;;;;;;54.88;33.30;;;;;;;23.24;57.78;93706.53;6130848;23;20529;-93
2022/08/02 11:59:20;;;;;;;46.38;26.95;;;;;;;23.18;57.99;93705.16;6112482;23;20069;-93
2022/08/02 12:01:46;;;;;;;46.40;26.45;;;;;;;23.16;58.24;93693.94;6039643;23;20023;-92
2022/08/02 12:04:16;;;;;;;43.50;22.90;;;;;;;23.19;58.31;93704.63;6046476;23;20029;-93
2022/08/02 12:06:42;;;;;;;31.02;17.35;;;;;;;23.21;58.63;93704.84;6028843;23;20026;-92
2022/08/02 12:09:12;;;;;;;26.13;14.95;;;;;;;23.10;58.63;93716.13;6025077;23;20026;-94
2022/08/02 12:11:37;;;;;;;26.45;15.57;;;;;;;23.18;58.62;93702.41;6049374;23;20019;-92
2022/08/02 12:14:04;;;;;;;25.50;13.25;;;;;;;23.15;58.99;93700.75;6011938;23;20025;-93
2022/08/02 12:19:28;;;;;;;45.08;14.98;;;;;;;23.10;59.47;93709.88;6050340;23;20171;-92
2022/08/02 12:22:07;;;;;;;44.00;17.25;;;;;;;23.15;59.51;93717.28;6017696;23;20027;-92
2022/08/02 12:24:47;;;;;;;34.28;20.23;;;;;;;23.15;59.36;93709.00;5995637;23;20825;-92
2022/08/02 12:27:28;;;;;;;42.22;23.95;;;;;;;23.21;59.11;93702.06;5990474;23;20125;-92
2022/08/02 12:29:59;;;;;;;17.67;11.20;;;;;;;23.23;58.86;93705.03;6014256;23;20163;-92
2022/08/02 12:32:24;;;;;;;61.88;31.25;;;;;;;23.23;59.12;93710.56;6032993;23;20054;-93
2022/08/02 12:35:14;;;;;;;79.80;33.42;;;;;;;23.22;58.88;93709.06;6002453;23;20019;-91
2022/08/02 12:37:49;;;;;;;161.20;129.70;;;;;;;23.26;59.08;93708.75;5991995;23;20043;-93
2022/08/02 12:40:28;;;;;;;37.67;19.92;;;;;;;23.37;58.97;93700.22;5996921;23;20019;-91
2022/08/02 12:42:58;;;;;;;60.22;42.47;;;;;;;23.40;58.69;93698.41;5983922;23;20035;-91
2022/08/02 12:45:27;;;;;;;46.30;19.75;;;;;;;23.43;58.60;93692.56;5995408;23;20034;-92
2022/08/02 12:47:55;;;;;;;22.02;12.57;;;;;;;23.51;58.21;93692.63;5996600;23;20007;-91
2022/08/02 12:50:26;;;;;;;25.85;14.13;;;;;;;23.43;57.94;93692.56;5984344;23;20030;-93
2022/08/02 12:53:14;;;;;;;17.60;8.25;;;;;;;23.38;57.88;93692.69;6019848;23;20026;-91
2022/08/02 12:55:54;;;;;;;30.77;15.07;;;;;;;23.37;57.82;93686.44;6025633;23;20043;-92
2022/08/02 12:58:21;;;;;;;22.25;15.23;;;;;;;23.34;57.43;93679.22;6047054;23;20039;-94
2022/08/02 13:00:59;;;;;;;56.45;26.52;;;;;;;23.43;56.98;93689.78;6048677;23;20022;-92
2022/08/02 13:03:27;;;;;;;50.58;24.58;;;;;;;23.45;56.98;93692.75;6049754;23;20090;-94
2022/08/02 13:05:54;;;;;;;45.88;25.38;;;;;;;23.45;57.01;93686.50;6045386;23;20073;-93
2022/08/02 13:08:19;;;;;;;49.28;26.75;;;;;;;23.47;57.00;93686.69;6045491;23;20086;-92
2022/08/02 13:10:45;;;;;;;44.88;24.98;;;;;;;23.44;56.96;93674.72;6077176;23;20038;-93
2022/08/02 13:13:11;;;;;;;22.42;12.73;;;;;;;23.49;55.94;93678.63;6051483;23;20041;-93
2022/08/02 13:15:36;;;;;;;23.52;13.40;;;;;;;23.50;56.14;93675.34;6075153;23;20018;-92
2022/08/02 13:18:13;;;;;;;43.10;23.45;;;;;;;23.50;55.77;93664.28;6044731;23;20106;-93
2022/08/02 13:20:38;;;;;;;82.22;32.25;;;;;;;23.52;55.85;93658.28;6043383;23;20442;-93
2022/08/02 13:23:11;;;;;;;65.97;31.08;;;;;;;23.55;55.57;93659.94;6058972;23;20021;-91
2022/08/02 13:25:40;;;;;;;39.03;20.83;;;;;;;23.60;55.57;93666.63;6063812;23;20119;-93
2022/08/02 13:28:05;;;;;;;15.98;8.88;;;;;;;23.55;53.85;93663.47;6064025;23;20044;-92